Time;durP1;ratioP1;P1;durP2;ratioP2;P2;SDS_P1;SDS_P2;PMS_P1;PMS_P2;Temp;Humidity;BMP_temperature;BMP_pressure;BME280_temperature;BME280_humidity;BME280_pressure;Samples;Min_cycle;Max_cycle;Signal;HPM_P1;HPM_P2
2023/10/12 00:01:37;;;;;;;6.57;2.63;;;;;;;;;;5024692;28;20043;-64
2023/10/12 00:04:06;;;;;;;5.10;2.65;;;;;;;;;;5025510;28;20086;-63
2023/10/12 00:06:37;;;;;;;3.08;2.22;;;;;;;;;;5022397;28;20039;-63
2023/10/12 00:09:16;;;;;;;5.47;2.42;;;;;;;;;;5020719;28;20075;-63
2023/10/12 00:11:48;;;;;;;5.53;2.40;;;;;;;;;;5024165;28;20061;-64
2023/10/12 00:14:14;;;;;;;5.00;2.65;;;;;;;;;;5020443;28;20070;-64
2023/10/12 00:16:43;;;;;;;4.30;2.10;;;;;;;;;;5019583;28;20058;-63
2023/10/12 00:19:12;;;;;;;8.05;2.58;;;;;;;;;;5019433;28;20497;-63
2023/10/12 00:21:38;;;;;;;5.07;2.20;;;;;;;;;;5018102;28;20048;-64
2023/10/12 00:24:07;;;;;;;4.30;2.58;;;;;;;;;;5017195;28;20052;-63
2023/10/12 00:26:34;;;;;;;5.47;2.40;;;;;;;;;;5019529;28;20549;-67
2023/10/12 00:29:00;;;;;;;6.97;2.95;;;;;;;;;;5017409;28;20088;-64
2023/10/12 00:31:27;;;;;;;7.10;2.65;;;;;;;;;;5019924;28;20641;-64
2023/10/12 00:33:53;;;;;;;3.35;2.30;;;;;;;;;;5023389;28;20437;-64
2023/10/12 00:36:21;;;;;;;5.03;2.45;;;;;;;;;;5046948;28;20036;-64
2023/10/12 00:38:47;;;;;;;5.70;2.30;;;;;;;;;;5016817;28;20087;-64
2023/10/12 00:41:17;;;;;;;7.55;2.80;;;;;;;;;;5023466;28;20156;-64
2023/10/12 00:44:08;;;;;;;6.22;2.58;;;;;;;;;;5022327;28;20045;-64
2023/10/12 00:51:40;;;;;;;4.22;2.25;;;;;;;;;;5023785;28;20569;-64
2023/10/12 00:54:10;;;;;;;2.33;2.00;;;;;;;;;;5018622;28;20156;-63
2023/10/12 00:56:36;;;;;;;7.32;2.58;;;;;;;;;;5021463;28;20037;-63
2023/10/12 00:59:03;;;;;;;4.63;2.45;;;;;;;;;;5020383;28;20389;-63
2023/10/12 01:01:32;;;;;;;3.92;2.45;;;;;;;;;;5022510;28;20025;-64
2023/10/12 01:03:58;;;;;;;5.57;2.55;;;;;;;;;;5026820;28;20040;-63
2023/10/12 01:08:57;;;;;;;4.28;2.67;;;;;;;;;;5024467;28;20106;-67
2023/10/12 01:11:26;;;;;;;5.55;2.50;;;;;;;;;;5018125;28;20373;-64
2023/10/12 01:16:29;;;;;;;6.32;2.67;;;;;;;;;;5018894;28;20041;-63
2023/10/12 01:18:59;;;;;;;6.13;3.03;;;;;;;;;;5019677;28;20442;-63
2023/10/12 01:21:28;;;;;;;4.95;2.55;;;;;;;;;;5016321;28;20478;-67
2023/10/12 01:24:00;;;;;;;5.93;2.40;;;;;;;;;;5020203;28;20038;-64
2023/10/12 01:26:26;;;;;;;4.97;2.65;;;;;;;;;;5013369;28;20144;-66
2023/10/12 01:28:55;;;;;;;6.45;2.20;;;;;;;;;;5018648;28;20062;-63
2023/10/12 01:31:28;;;;;;;6.57;2.40;;;;;;;;;;5016890;28;20048;-63
2023/10/12 01:33:55;;;;;;;5.88;3.13;;;;;;;;;;5016548;28;20662;-65
2023/10/12 01:36:30;;;;;;;7.63;2.45;;;;;;;;;;5022218;28;20032;-63
2023/10/12 01:39:13;;;;;;;4.38;2.47;;;;;;;;;;5033774;28;20606;-63
2023/10/12 01:41:42;;;;;;;5.88;2.30;;;;;;;;;;5018682;28;20568;-63
2023/10/12 01:44:11;;;;;;;8.57;2.72;;;;;;;;;;5018489;28;20394;-63
2023/10/12 01:46:41;;;;;;;6.38;2.50;;;;;;;;;;5022616;28;20029;-64
2023/10/12 01:49:07;;;;;;;4.50;2.15;;;;;;;;;;5019908;28;20062;-63
2023/10/12 01:51:40;;;;;;;6.35;2.50;;;;;;;;;;5023549;28;20596;-63
2023/10/12 01:54:12;;;;;;;5.13;2.90;;;;;;;;;;5019200;28;20108;-63
2023/10/12 01:56:38;;;;;;;4.22;2.78;;;;;;;;;;5018630;28;20087;-63
2023/10/12 01:59:07;;;;;;;3.22;2.33;;;;;;;;;;5014767;28;20401;-63
2023/10/12 02:01:34;;;;;;;6.30;2.53;;;;;;;;;;5018574;28;20037;-63
2023/10/12 02:04:05;;;;;;;8.40;2.35;;;;;;;;;;5018014;28;20045;-63
2023/10/12 02:06:31;;;;;;;6.38;3.38;;;;;;;;;;5018928;28;20427;-63
2023/10/12 02:09:34;;;;;;;5.07;2.35;;;;;;;;;;5017939;28;20034;-63
2023/10/12 02:11:57;;;;;;;4.68;2.45;;;;;;;;;;5023044;28;20412;-63
2023/10/12 02:14:33;;;;;;;6.65;2.55;;;;;;;;;;5020279;28;20037;-64
2023/10/12 02:17:02;;;;;;;2.95;2.53;;;;;;;;;;5024010;28;20354;-64
2023/10/12 02:22:04;;;;;;;3.53;2.30;;;;;;;;;;5019140;28;20022;-63
2023/10/12 02:24:31;;;;;;;5.53;2.50;;;;;;;;;;5018581;28;20033;-63
2023/10/12 02:27:00;;;;;;;4.70;2.47;;;;;;;;;;5038910;28;20025;-64
2023/10/12 02:29:28;;;;;;;3.20;2.50;;;;;;;;;;5021936;28;20052;-63
2023/10/12 02:31:56;;;;;;;6.00;3.08;;;;;;;;;;5015910;28;20038;-64
2023/10/12 02:34:25;;;;;;;3.70;2.55;;;;;;;;;;5017145;28;20031;-63
2023/10/12 02:39:38;;;;;;;3.67;2.30;;;;;;;;;;5022243;28;20239;-63
2023/10/12 02:42:17;;;;;;;5.10;2.55;;;;;;;;;;5014178;28;20026;-63
2023/10/12 02:45:29;;;;;;;3.35;2.35;;;;;;;;;;5024270;28;20144;-63
2023/10/12 02:47:30;;;;;;;3.53;2.45;;;;;;;;;;5012836;28;20041;-63
2023/10/12 02:50:04;;;;;;;5.18;2.90;;;;;;;;;;5021738;28;20524;-63
2023/10/12 02:52:32;;;;;;;4.28;2.35;;;;;;;;;;5020095;28;20441;-68
2023/10/12 02:55:07;;;;;;;2.53;2.33;;;;;;;;;;5021003;28;20092;-64
2023/10/12 02:57:33;;;;;;;3.33;2.50;;;;;;;;;;5018176;28;20038;-63
2023/10/12 03:00:08;;;;;;;3.53;2.33;;;;;;;;;;5022714;28;20033;-64
2023/10/12 03:02:35;;;;;;;6.82;2.83;;;;;;;;;;5020211;28;20454;-63
2023/10/12 03:05:06;;;;;;;5.78;2.88;;;;;;;;;;5018825;28;20052;-64
2023/10/12 03:07:35;;;;;;;3.70;2.83;;;;;;;;;;5017038;28;20539;-63
2023/10/12 03:10:06;;;;;;;6.30;2.65;;;;;;;;;;5024495;28;20040;-65
2023/10/12 03:12:35;;;;;;;4.45;2.40;;;;;;;;;;5021816;28;20026;-63
2023/10/12 03:15:11;;;;;;;5.78;2.70;;;;;;;;;;5024814;28;20026;-64
2023/10/12 03:17:41;;;;;;;4.15;3.08;;;;;;;;;;5012895;28;20061;-64
2023/10/12 03:20:23;;;;;;;4.40;2.58;;;;;;;;;;5019988;28;20025;-63
2023/10/12 03:22:59;;;;;;;5.28;3.20;;;;;;;;;;5014304;28;20104;-67
2023/10/12 03:31:11;;;;;;;5.75;2.88;;;;;;;;;;5019836;28;20029;-63
2023/10/12 03:33:39;;;;;;;3.67;2.78;;;;;;;;;;5015023;28;20036;-64
2023/10/12 03:36:23;;;;;;;4.93;2.72;;;;;;;;;;5017837;28;20021;-63
2023/10/12 03:45:08;;;;;;;2.72;2.47;;;;;;;;;;5016056;28;20033;-63
2023/10/12 03:52:51;;;;;;;8.07;3.20;;;;;;;;;;5013348;28;20025;-63
2023/10/12 03:55:28;;;;;;;6.35;2.97;;;;;;;;;;5016319;28;20032;-63
2023/10/12 03:58:07;;;;;;;8.75;3.50;;;;;;;;;;5017018;28;20048;-63
2023/10/12 04:03:18;;;;;;;4.53;3.25;;;;;;;;;;5017884;28;20060;-63
2023/10/12 04:05:47;;;;;;;5.15;2.70;;;;;;;;;;5018434;28;20055;-63
2023/10/12 04:08:39;;;;;;;7.65;2.83;;;;;;;;;;5020821;28;20031;-64
2023/10/12 04:11:45;;;;;;;3.30;2.53;;;;;;;;;;5017615;28;20035;-64
2023/10/12 04:17:07;;;;;;;6.53;2.63;;;;;;;;;;5021417;28;20071;-63
2023/10/12 04:19:34;;;;;;;5.03;3.05;;;;;;;;;;5015574;28;20037;-63
2023/10/12 04:24:48;;;;;;;5.37;3.37;;;;;;;;;;5015606;28;20061;-63
2023/10/12 04:27:24;;;;;;;3.75;2.72;;;;;;;;;;5019089;28;20047;-63
2023/10/12 04:29:56;;;;;;;5.80;2.85;;;;;;;;;;5017427;28;20091;-64
2023/10/12 04:32:53;;;;;;;6.88;3.72;;;;;;;;;;5032457;28;20037;-63
2023/10/12 04:44:06;;;;;;;6.22;2.90;;;;;;;;;;5016836;28;20188;-63
2023/10/12 04:46:47;;;;;;;5.10;2.63;;;;;;;;;;5019043;28;20025;-63
2023/10/12 04:51:49;;;;;;;5.40;3.25;;;;;;;;;;5020476;28;20469;-63
2023/10/12 04:54:25;;;;;;;4.43;2.97;;;;;;;;;;5019963;28;20045;-63
2023/10/12 04:57:12;;;;;;;4.50;2.88;;;;;;;;;;5015681;28;20038;-63
2023/10/12 05:09:38;;;;;;;4.60;2.95;;;;;;;;;;5015837;28;20033;-62
2023/10/12 05:12:04;;;;;;;6.63;2.88;;;;;;;;;;5035726;28;20025;-63
2023/10/12 05:14:33;;;;;;;4.43;3.13;;;;;;;;;;5013793;28;20501;-63
2023/10/12 05:16:59;;;;;;;4.18;3.10;;;;;;;;;;5015752;28;20030;-63
2023/10/12 05:19:26;;;;;;;7.38;3.72;;;;;;;;;;5017264;28;20045;-63
2023/10/12 05:21:54;;;;;;;7.72;2.72;;;;;;;;;;5021867;28;20060;-63
2023/10/12 05:24:22;;;;;;;5.97;3.00;;;;;;;;;;5017042;28;20112;-63
2023/10/12 05:26:57;;;;;;;3.60;2.75;;;;;;;;;;5021148;28;20045;-62
2023/10/12 05:32:05;;;;;;;7.93;2.88;;;;;;;;;;5018853;28;20026;-63
2023/10/12 05:37:08;;;;;;;3.90;3.20;;;;;;;;;;5015344;28;20072;-63
2023/10/12 05:39:46;;;;;;;5.78;3.63;;;;;;;;;;5034374;28;20025;-63
2023/10/12 05:42:14;;;;;;;5.35;2.97;;;;;;;;;;5017305;28;20077;-65
2023/10/12 05:44:43;;;;;;;4.55;3.47;;;;;;;;;;5023318;28;20045;-64
2023/10/12 05:47:12;;;;;;;7.97;3.17;;;;;;;;;;5015580;28;20013;-64
2023/10/12 05:49:40;;;;;;;8.52;3.80;;;;;;;;;;5013525;28;20084;-65
2023/10/12 05:52:08;;;;;;;7.63;3.55;;;;;;;;;;5019127;28;20026;-64
2023/10/12 05:54:34;;;;;;;6.65;3.28;;;;;;;;;;5021958;28;20433;-65
2023/10/12 05:57:07;;;;;;;8.35;3.83;;;;;;;;;;5022444;28;20029;-64
2023/10/12 05:59:33;;;;;;;7.22;3.03;;;;;;;;;;5019488;28;20116;-64
2023/10/12 06:02:01;;;;;;;6.47;3.65;;;;;;;;;;5019299;28;20021;-64
2023/10/12 06:04:27;;;;;;;3.83;3.42;;;;;;;;;;5020157;28;20032;-65
2023/10/12 06:06:53;;;;;;;5.30;3.33;;;;;;;;;;5014766;28;20022;-64
2023/10/12 06:09:24;;;;;;;5.18;3.30;;;;;;;;;;5020346;28;20060;-65
2023/10/12 06:11:51;;;;;;;3.83;3.35;;;;;;;;;;5017096;28;20034;-65
2023/10/12 06:14:20;;;;;;;4.15;3.10;;;;;;;;;;5013842;28;20048;-65
2023/10/12 06:16:47;;;;;;;6.78;3.95;;;;;;;;;;5021718;28;20494;-64
2023/10/12 06:19:26;;;;;;;4.28;2.90;;;;;;;;;;5017224;28;20036;-64
2023/10/12 06:21:52;;;;;;;4.68;3.83;;;;;;;;;;5024568;28;20574;-65
2023/10/12 06:24:23;;;;;;;4.32;3.35;;;;;;;;;;5018314;28;20060;-67
2023/10/12 06:26:53;;;;;;;7.43;3.70;;;;;;;;;;5021272;28;20025;-65
2023/10/12 06:29:25;;;;;;;5.78;3.55;;;;;;;;;;5015883;28;20045;-65
2023/10/12 06:31:52;;;;;;;4.80;3.60;;;;;;;;;;5023020;28;20535;-64
2023/10/12 06:34:19;;;;;;;6.15;4.90;;;;;;;;;;5014386;28;20037;-65
2023/10/12 06:36:46;;;;;;;5.40;3.45;;;;;;;;;;5017287;28;20410;-72
2023/10/12 06:44:22;;;;;;;6.43;3.50;;;;;;;;;;5017408;28;20526;-65
2023/10/12 06:46:49;;;;;;;9.45;3.28;;;;;;;;;;5020291;28;20107;-64
2023/10/12 06:49:21;;;;;;;5.70;3.33;;;;;;;;;;5017255;28;20060;-65
2023/10/12 06:51:54;;;;;;;6.15;3.42;;;;;;;;;;5013187;28;20037;-64
2023/10/12 06:54:39;;;;;;;5.97;3.03;;;;;;;;;;5022806;28;20052;-64
2023/10/12 07:02:32;;;;;;;5.53;3.50;;;;;;;;;;5018449;28;20116;-64
2023/10/12 07:04:58;;;;;;;4.60;3.45;;;;;;;;;;5014916;28;20080;-65
2023/10/12 07:07:43;;;;;;;6.05;4.28;;;;;;;;;;5017869;28;20025;-64
2023/10/12 07:12:49;;;;;;;6.55;3.55;;;;;;;;;;5013702;28;20026;-64
2023/10/12 07:15:20;;;;;;;6.25;4.38;;;;;;;;;;5018672;28;20595;-65
2023/10/12 07:17:49;;;;;;;5.60;3.50;;;;;;;;;;5015754;28;20040;-65
2023/10/12 07:20:27;;;;;;;5.20;3.33;;;;;;;;;;5019563;28;20033;-65
2023/10/12 07:22:53;;;;;;;6.63;3.88;;;;;;;;;;5019364;28;20389;-64
2023/10/12 07:25:23;;;;;;;6.18;3.45;;;;;;;;;;5018473;28;20060;-64
2023/10/12 07:27:59;;;;;;;5.90;3.40;;;;;;;;;;5019653;28;20030;-64
2023/10/12 07:30:33;;;;;;;5.60;3.80;;;;;;;;;;5017631;28;20611;-64
2023/10/12 07:33:07;;;;;;;8.05;3.75;;;;;;;;;;5017643;28;20448;-65
2023/10/12 07:35:41;;;;;;;6.93;3.97;;;;;;;;;;5015715;28;20405;-65
2023/10/12 07:38:35;;;;;;;5.80;3.57;;;;;;;;;;5019681;28;20033;-65
2023/10/12 07:41:00;;;;;;;6.55;3.85;;;;;;;;;;5014696;28;20053;-65
2023/10/12 07:43:31;;;;;;;8.07;3.85;;;;;;;;;;5014390;28;20122;-65
2023/10/12 07:46:09;;;;;;;6.78;3.58;;;;;;;;;;5016804;28;20052;-64
2023/10/12 07:48:45;;;;;;;8.35;3.72;;;;;;;;;;5015872;28;20037;-65
2023/10/12 07:51:15;;;;;;;7.22;3.30;;;;;;;;;;5017895;28;20108;-65
2023/10/12 07:53:57;;;;;;;11.70;4.90;;;;;;;;;;5025459;28;20470;-65
2023/10/12 07:56:24;;;;;;;6.97;4.55;;;;;;;;;;5026285;28;20033;-66
2023/10/12 07:58:59;;;;;;;6.22;3.75;;;;;;;;;;5024149;28;20029;-65
2023/10/12 08:03:52;;;;;;;9.15;4.32;;;;;;;;;;5018692;28;20477;-65
2023/10/12 08:09:34;;;;;;;7.38;3.25;;;;;;;;;;5004050;28;20065;-66
2023/10/12 08:12:23;;;;;;;7.78;3.30;;;;;;;;;;5016924;28;20033;-66
2023/10/12 08:14:46;;;;;;;7.05;3.22;;;;;;;;;;5022715;28;20045;-66
2023/10/12 08:17:25;;;;;;;7.35;3.53;;;;;;;;;;5017891;28;20137;-66
2023/10/12 08:20:45;;;;;;;5.72;3.42;;;;;;;;;;5026980;28;20128;-64
2023/10/12 08:22:46;;;;;;;4.93;3.30;;;;;;;;;;5021039;28;20037;-64
2023/10/12 08:25:14;;;;;;;6.75;3.58;;;;;;;;;;5019719;28;20148;-64
2023/10/12 08:27:52;;;;;;;8.68;4.50;;;;;;;;;;5017212;28;20080;-64
2023/10/12 08:30:23;;;;;;;6.63;3.28;;;;;;;;;;5020399;28;20507;-64
2023/10/12 08:32:58;;;;;;;3.75;3.00;;;;;;;;;;5029535;28;20028;-66
2023/10/12 08:35:39;;;;;;;5.43;3.03;;;;;;;;;;5020491;28;20029;-66
2023/10/12 08:38:11;;;;;;;4.75;3.45;;;;;;;;;;5018095;28;21270;-66
2023/10/12 08:40:55;;;;;;;3.63;2.97;;;;;;;;;;5026874;28;20044;-66
2023/10/12 08:46:07;;;;;;;6.03;3.17;;;;;;;;;;5017241;28;20077;-66
2023/10/12 08:48:35;;;;;;;6.75;2.80;;;;;;;;;;5013313;28;20120;-67
2023/10/12 08:51:09;;;;;;;5.10;3.00;;;;;;;;;;5017558;28;20096;-66
2023/10/12 08:53:38;;;;;;;3.50;2.80;;;;;;;;;;5024547;28;20037;-64
2023/10/12 08:56:08;;;;;;;5.75;3.10;;;;;;;;;;5020506;28;20052;-63
2023/10/12 08:58:39;;;;;;;5.28;3.35;;;;;;;;;;5019563;28;20058;-64
2023/10/12 09:01:08;;;;;;;8.52;2.70;;;;;;;;;;5024668;28;20057;-64
2023/10/12 09:03:39;;;;;;;7.75;2.65;;;;;;;;;;5022172;28;20485;-64
2023/10/12 09:07:06;;;;;;;7.70;2.75;;;;;;;;;;5019247;28;20474;-65
2023/10/12 09:09:02;;;;;;;7.72;2.72;;;;;;;;;;5010904;28;20053;-64
2023/10/12 09:11:34;;;;;;;6.72;2.47;;;;;;;;;;5017207;28;20025;-65
2023/10/12 09:14:11;;;;;;;6.80;2.72;;;;;;;;;;5019406;28;20029;-65
2023/10/12 09:16:37;;;;;;;10.68;3.10;;;;;;;;;;5017922;28;20041;-64
2023/10/12 09:19:07;;;;;;;6.18;3.25;;;;;;;;;;5020429;28;20032;-68
2023/10/12 09:21:39;;;;;;;6.28;3.80;;;;;;;;;;5013445;28;20036;-68
2023/10/12 09:24:08;;;;;;;5.50;3.17;;;;;;;;;;5011855;28;20034;-67
2023/10/12 09:26:35;;;;;;;5.60;3.33;;;;;;;;;;5022178;28;20030;-68
2023/10/12 09:36:37;;;;;;;9.80;4.47;;;;;;;;;;5018379;28;20072;-68
2023/10/12 09:39:11;;;;;;;6.00;3.35;;;;;;;;;;5019114;28;20029;-68
2023/10/12 09:41:40;;;;;;;5.97;2.88;;;;;;;;;;5018644;28;20053;-68
2023/10/12 09:44:07;;;;;;;13.40;3.45;;;;;;;;;;5014663;28;20680;-67
2023/10/12 09:46:33;;;;;;;5.97;3.35;;;;;;;;;;5019897;28;20052;-69
2023/10/12 09:49:06;;;;;;;6.05;3.55;;;;;;;;;;5021423;28;20029;-68
2023/10/12 09:51:45;;;;;;;6.70;2.40;;;;;;;;;;5013986;28;20033;-68
2023/10/12 09:54:15;;;;;;;10.40;2.80;;;;;;;;;;5013063;28;20021;-68
2023/10/12 09:56:57;;;;;;;5.30;2.85;;;;;;;;;;5018432;28;20071;-68
2023/10/12 09:59:23;;;;;;;10.20;2.80;;;;;;;;;;5018129;28;20036;-68
2023/10/12 10:01:49;;;;;;;7.82;2.70;;;;;;;;;;5022726;28;20146;-68
2023/10/12 10:07:15;;;;;;;4.28;2.45;;;;;;;;;;5019217;28;20090;-70
2023/10/12 10:09:48;;;;;;;5.90;2.85;;;;;;;;;;5027134;28;20433;-67
2023/10/12 10:12:18;;;;;;;6.22;2.85;;;;;;;;;;5018609;28;20022;-68
2023/10/12 10:14:53;;;;;;;5.70;2.78;;;;;;;;;;5024346;28;20021;-67
2023/10/12 10:17:23;;;;;;;6.00;3.40;;;;;;;;;;5020731;28;20060;-67
2023/10/12 10:20:03;;;;;;;7.00;2.45;;;;;;;;;;5016701;28;20025;-68
2023/10/12 10:22:33;;;;;;;5.55;2.63;;;;;;;;;;5020055;28;20452;-69
2023/10/12 10:25:04;;;;;;;6.45;2.60;;;;;;;;;;5024982;28;20394;-68
2023/10/12 10:27:36;;;;;;;5.15;2.03;;;;;;;;;;5013959;28;20141;-68
2023/10/12 10:30:26;;;;;;;6.43;2.70;;;;;;;;;;5018557;28;20034;-68
2023/10/12 10:33:17;;;;;;;3.83;2.47;;;;;;;;;;5015771;28;20117;-71
2023/10/12 10:36:10;;;;;;;4.25;2.53;;;;;;;;;;5018202;28;20021;-67
2023/10/12 10:38:39;;;;;;;4.20;2.22;;;;;;;;;;5029720;28;20528;-67
2023/10/12 10:41:18;;;;;;;7.93;2.47;;;;;;;;;;5021665;28;20138;-68
2023/10/12 10:43:45;;;;;;;5.05;2.55;;;;;;;;;;5019039;28;20033;-67
2023/10/12 10:46:13;;;;;;;3.20;2.45;;;;;;;;;;5014863;28;20699;-68
2023/10/12 10:48:40;;;;;;;5.57;1.98;;;;;;;;;;5022748;28;20473;-68
2023/10/12 10:51:18;;;;;;;6.50;2.20;;;;;;;;;;5012606;28;20026;-67
2023/10/12 10:53:51;;;;;;;5.82;2.13;;;;;;;;;;5024668;28;21447;-68
2023/10/12 10:56:32;;;;;;;5.93;2.25;;;;;;;;;;5017961;28;20358;-67
2023/10/12 10:58:59;;;;;;;5.13;2.47;;;;;;;;;;5019465;28;20528;-67
2023/10/12 11:01:26;;;;;;;6.00;2.17;;;;;;;;;;5019398;28;20540;-67
2023/10/12 11:03:52;;;;;;;5.90;2.38;;;;;;;;;;5013722;28;20087;-68
2023/10/12 11:06:22;;;;;;;4.88;2.85;;;;;;;;;;5046379;28;20045;-67
2023/10/12 11:09:02;;;;;;;9.27;2.75;;;;;;;;;;5013481;28;20521;-66
2023/10/12 11:11:37;;;;;;;10.27;3.05;;;;;;;;;;5017223;28;20870;-67
2023/10/12 11:14:04;;;;;;;4.38;1.92;;;;;;;;;;5013767;28;20037;-67
2023/10/12 11:16:30;;;;;;;5.13;2.00;;;;;;;;;;5014440;28;20044;-67
2023/10/12 11:19:00;;;;;;;3.25;2.42;;;;;;;;;;5012766;28;20497;-67
2023/10/12 11:21:26;;;;;;;7.47;2.75;;;;;;;;;;5017128;28;20132;-68
2023/10/12 11:24:04;;;;;;;6.95;2.08;;;;;;;;;;5005947;28;21102;-67
2023/10/12 11:26:39;;;;;;;7.32;2.00;;;;;;;;;;5029653;28;20030;-66
2023/10/12 11:29:06;;;;;;;;;;;;;;;;;;5014864;28;20494;-68
2023/10/12 11:31:32;;;;;;;3.70;2.63;;;;;;;;;;5016143;28;19918;-67
2023/10/12 11:33:59;;;;;;;5.70;2.70;;;;;;;;;;5019017;28;20036;-67
2023/10/12 11:36:26;;;;;;;6.68;2.50;;;;;;;;;;5016068;28;20030;-67
2023/10/12 11:39:03;;;;;;;5.68;2.28;;;;;;;;;;5009645;28;20049;-67
2023/10/12 11:41:29;;;;;;;3.40;2.00;;;;;;;;;;5012303;28;20100;-67
2023/10/12 11:44:00;;;;;;;6.65;2.42;;;;;;;;;;5016000;28;20033;-67
2023/10/12 11:46:26;;;;;;;4.35;2.40;;;;;;;;;;5020865;28;20053;-67
2023/10/12 11:49:07;;;;;;;3.30;1.88;;;;;;;;;;5019736;28;20036;-68
2023/10/12 11:51:40;;;;;;;5.35;2.00;;;;;;;;;;5019009;28;20350;-67
2023/10/12 11:54:09;;;;;;;6.07;2.20;;;;;;;;;;5015562;28;20038;-67
2023/10/12 11:56:44;;;;;;;4.30;2.33;;;;;;;;;;5016108;28;20028;-68
2023/10/12 11:59:19;;;;;;;;;;;;;;;;;;5016669;28;20144;-67
2023/10/12 12:01:45;;;;;;;5.50;2.20;;;;;;;;;;5027761;28;19917;-68
2023/10/12 12:04:23;;;;;;;8.07;2.28;;;;;;;;;;5014900;28;20461;-68
2023/10/12 12:06:50;;;;;;;4.60;2.53;;;;;;;;;;5012235;28;20029;-63
2023/10/12 12:09:17;;;;;;;6.78;2.22;;;;;;;;;;5021202;28;20032;-63
2023/10/12 12:11:44;;;;;;;6.40;2.88;;;;;;;;;;5013989;28;20068;-63
2023/10/12 12:14:10;;;;;;;7.03;2.20;;;;;;;;;;5018864;28;20056;-63
2023/10/12 12:16:38;;;;;;;3.00;2.03;;;;;;;;;;5018849;28;20529;-63
2023/10/12 12:19:04;;;;;;;4.03;2.00;;;;;;;;;;5014055;28;20083;-63
2023/10/12 12:21:33;;;;;;;5.65;2.72;;;;;;;;;;5014382;28;20034;-62
2023/10/12 12:26:45;;;;;;;4.85;2.80;;;;;;;;;;5014027;28;20560;-62
2023/10/12 12:29:11;;;;;;;5.57;2.33;;;;;;;;;;5015130;28;20075;-62
2023/10/12 12:31:38;;;;;;;3.17;2.17;;;;;;;;;;5015373;28;20106;-62
2023/10/12 12:34:07;;;;;;;4.80;2.05;;;;;;;;;;5015643;28;20068;-62
2023/10/12 12:36:33;;;;;;;5.15;2.67;;;;;;;;;;5014734;28;20037;-64
2023/10/12 12:39:09;;;;;;;4.15;2.60;;;;;;;;;;5019410;28;20033;-62
2023/10/12 12:41:36;;;;;;;6.32;2.40;;;;;;;;;;5016937;28;20080;-62
2023/10/12 12:44:02;;;;;;;6.50;2.30;;;;;;;;;;5016837;28;20539;-62
2023/10/12 12:46:32;;;;;;;8.48;2.35;;;;;;;;;;5029764;28;20032;-63
2023/10/12 12:48:58;;;;;;;4.53;2.33;;;;;;;;;;5026665;28;20029;-66
2023/10/12 12:51:24;;;;;;;7.38;2.30;;;;;;;;;;5020659;28;20540;-67
2023/10/12 12:53:52;;;;;;;5.30;2.08;;;;;;;;;;5012477;28;20091;-67
2023/10/12 12:56:20;;;;;;;2.97;2.20;;;;;;;;;;5012709;28;20036;-68
2023/10/12 12:58:47;;;;;;;4.40;2.33;;;;;;;;;;5012688;28;20128;-67
2023/10/12 13:01:17;;;;;;;3.90;2.20;;;;;;;;;;5011108;28;20033;-67
2023/10/12 13:03:44;;;;;;;5.38;2.30;;;;;;;;;;5019907;28;20052;-68
2023/10/12 13:06:12;;;;;;;5.82;2.30;;;;;;;;;;5022111;28;20079;-69
2023/10/12 13:08:38;;;;;;;5.30;2.13;;;;;;;;;;5022288;28;20049;-69
2023/10/12 13:11:04;;;;;;;5.03;2.88;;;;;;;;;;5017917;28;20017;-69
2023/10/12 13:13:33;;;;;;;4.20;2.40;;;;;;;;;;5021725;28;20034;-69
2023/10/12 13:16:00;;;;;;;7.40;2.53;;;;;;;;;;5015682;28;20034;-69
2023/10/12 13:18:29;;;;;;;5.15;2.08;;;;;;;;;;5023601;28;20037;-69
2023/10/12 13:20:57;;;;;;;4.75;2.05;;;;;;;;;;5025251;28;20038;-69
2023/10/12 13:23:23;;;;;;;5.55;2.33;;;;;;;;;;5024011;28;20462;-69
2023/10/12 13:25:50;;;;;;;4.22;2.13;;;;;;;;;;5017174;28;20031;-69
2023/10/12 13:28:16;;;;;;;4.32;2.40;;;;;;;;;;5017841;28;20018;-70
2023/10/12 13:30:43;;;;;;;3.28;2.30;;;;;;;;;;5018330;28;20179;-69
2023/10/12 13:33:11;;;;;;;4.13;2.40;;;;;;;;;;5018317;28;20127;-69
2023/10/12 13:38:09;;;;;;;5.50;2.42;;;;;;;;;;5018124;28;20048;-68
2023/10/12 13:40:39;;;;;;;2.95;2.00;;;;;;;;;;5008204;28;20042;-68
2023/10/12 13:43:26;;;;;;;4.88;2.33;;;;;;;;;;5010338;28;20037;-68
2023/10/12 13:45:54;;;;;;;3.90;2.25;;;;;;;;;;5012632;28;20050;-71
2023/10/12 13:48:27;;;;;;;6.72;2.42;;;;;;;;;;5017096;28;20029;-68
2023/10/12 13:50:53;;;;;;;5.07;2.38;;;;;;;;;;5020141;28;20062;-66
2023/10/12 13:53:20;;;;;;;7.82;2.40;;;;;;;;;;5017562;28;20760;-69
2023/10/12 13:55:50;;;;;;;3.90;2.67;;;;;;;;;;5017645;28;20106;-67
2023/10/12 13:58:16;;;;;;;2.95;1.80;;;;;;;;;;5012913;28;20110;-68
2023/10/12 14:00:42;;;;;;;3.80;1.70;;;;;;;;;;5012289;28;20140;-68
2023/10/12 14:03:13;;;;;;;4.47;2.90;;;;;;;;;;5011266;28;20033;-65
2023/10/12 14:05:40;;;;;;;5.82;1.90;;;;;;;;;;5012722;28;20043;-68
2023/10/12 14:08:10;;;;;;;3.83;1.85;;;;;;;;;;5019365;28;20025;-69
2023/10/12 14:10:44;;;;;;;1.73;1.52;;;;;;;;;;5012348;28;20031;-67
2023/10/12 14:13:13;;;;;;;2.33;1.88;;;;;;;;;;5015549;28;20120;-67
2023/10/12 14:15:43;;;;;;;2.28;2.03;;;;;;;;;;5014613;28;20523;-68
2023/10/12 14:18:11;;;;;;;4.68;1.77;;;;;;;;;;5025270;28;20036;-70
2023/10/12 14:20:38;;;;;;;4.97;2.60;;;;;;;;;;5015094;28;20102;-70
2023/10/12 14:23:07;;;;;;;3.45;2.60;;;;;;;;;;5015952;28;21292;-70
2023/10/12 14:25:47;;;;;;;7.50;3.90;;;;;;;;;;5015246;28;20137;-70
2023/10/12 14:28:17;;;;;;;7.13;3.70;;;;;;;;;;5009707;28;21554;-72
2023/10/12 14:30:50;;;;;;;4.07;3.20;;;;;;;;;;5013702;28;20033;-70
2023/10/12 14:33:19;;;;;;;5.28;2.50;;;;;;;;;;5008532;28;20070;-68
2023/10/12 14:35:45;;;;;;;4.57;3.00;;;;;;;;;;5027743;28;20118;-66
2023/10/12 14:38:16;;;;;;;7.15;3.10;;;;;;;;;;5013083;28;20029;-66
2023/10/12 14:40:43;;;;;;;4.82;3.50;;;;;;;;;;5014298;28;20501;-68
2023/10/12 14:43:13;;;;;;;5.22;2.15;;;;;;;;;;5009185;28;20060;-70
2023/10/12 14:46:01;;;;;;;3.25;2.10;;;;;;;;;;5010514;28;20482;-71
2023/10/12 14:48:30;;;;;;;6.68;3.03;;;;;;;;;;5013415;28;20076;-64
2023/10/12 14:51:00;;;;;;;5.13;2.30;;;;;;;;;;5012558;28;20100;-64
2023/10/12 14:53:29;;;;;;;5.35;2.30;;;;;;;;;;5013216;28;20390;-66
2023/10/12 14:55:55;;;;;;;7.55;2.55;;;;;;;;;;5013279;28;20091;-64
2023/10/12 14:58:22;;;;;;;6.00;2.45;;;;;;;;;;5028432;28;20052;-64
2023/10/12 15:00:50;;;;;;;3.65;2.30;;;;;;;;;;5011556;28;20869;-72
2023/10/12 15:03:21;;;;;;;8.52;3.80;;;;;;;;;;5013640;28;20585;-73
2023/10/12 15:05:48;;;;;;;6.38;3.42;;;;;;;;;;5013012;28;20070;-71
2023/10/12 15:08:14;;;;;;;5.95;2.72;;;;;;;;;;5014564;28;20029;-72
2023/10/12 15:10:43;;;;;;;3.83;2.60;;;;;;;;;;5012037;28;20048;-73
2023/10/12 15:13:12;;;;;;;6.13;4.15;;;;;;;;;;5039693;28;20029;-72
2023/10/12 15:15:38;;;;;;;5.97;3.40;;;;;;;;;;5013603;28;20040;-73
2023/10/12 15:18:04;;;;;;;4.78;2.20;;;;;;;;;;5009230;28;20026;-72
2023/10/12 15:20:34;;;;;;;2.88;2.20;;;;;;;;;;5015887;28;20037;-72
2023/10/12 15:23:01;;;;;;;2.53;2.33;;;;;;;;;;5014003;28;20025;-72
2023/10/12 15:25:29;;;;;;;6.15;2.75;;;;;;;;;;5014917;28;20402;-73
2023/10/12 15:27:55;;;;;;;5.40;2.88;;;;;;;;;;5016412;28;20026;-69
2023/10/12 15:30:24;;;;;;;13.15;11.85;;;;;;;;;;5012688;28;20038;-73
2023/10/12 15:32:51;;;;;;;9.40;4.57;;;;;;;;;;5012513;28;20057;-71
2023/10/12 15:35:23;;;;;;;6.22;3.33;;;;;;;;;;5010401;28;20059;-71
2023/10/12 15:37:50;;;;;;;5.50;3.83;;;;;;;;;;5011943;28;20056;-70
2023/10/12 15:40:25;;;;;;;5.68;3.60;;;;;;;;;;5013131;28;20045;-70
2023/10/12 15:42:52;;;;;;;4.38;3.30;;;;;;;;;;5009878;28;20928;-71
2023/10/12 15:45:20;;;;;;;7.05;3.78;;;;;;;;;;5013180;28;20072;-70
2023/10/12 15:47:46;;;;;;;7.38;3.65;;;;;;;;;;5010827;28;20143;-71
2023/10/12 15:50:14;;;;;;;8.65;3.97;;;;;;;;;;5011448;28;20030;-72
2023/10/12 15:52:40;;;;;;;6.63;3.15;;;;;;;;;;5013810;28;20116;-70
2023/10/12 15:55:07;;;;;;;6.85;3.45;;;;;;;;;;5011109;28;20261;-69
2023/10/12 15:57:34;;;;;;;8.60;7.75;;;;;;;;;;5010435;28;20048;-70
2023/10/12 16:00:00;;;;;;;4.43;3.22;;;;;;;;;;5006286;28;20109;-71
2023/10/12 16:02:29;;;;;;;9.43;3.50;;;;;;;;;;5016187;28;20125;-69
2023/10/12 16:04:56;;;;;;;4.88;2.97;;;;;;;;;;5006645;28;20757;-70
2023/10/12 16:07:22;;;;;;;10.70;3.53;;;;;;;;;;5011367;28;20634;-71
2023/10/12 16:09:49;;;;;;;6.20;3.25;;;;;;;;;;5016048;28;20473;-73
2023/10/12 16:12:19;;;;;;;8.68;5.18;;;;;;;;;;5018725;28;20057;-70
2023/10/12 16:14:50;;;;;;;5.28;2.92;;;;;;;;;;5017099;28;20053;-70
2023/10/12 16:17:16;;;;;;;8.63;3.97;;;;;;;;;;5014582;28;20124;-71
2023/10/12 16:19:43;;;;;;;6.95;2.78;;;;;;;;;;5017160;28;20454;-70
2023/10/12 16:22:10;;;;;;;6.85;4.70;;;;;;;;;;5018215;28;20401;-71
2023/10/12 16:24:36;;;;;;;7.35;5.20;;;;;;;;;;5018798;28;20631;-72
2023/10/12 16:27:03;;;;;;;10.02;6.85;;;;;;;;;;5016232;28;20076;-70
2023/10/12 16:29:30;;;;;;;9.27;6.47;;;;;;;;;;5017707;28;20029;-71
2023/10/12 16:31:58;;;;;;;6.15;3.40;;;;;;;;;;5011956;28;20029;-72
2023/10/12 16:34:24;;;;;;;7.13;4.15;;;;;;;;;;5012587;28;20029;-70
2023/10/12 16:36:56;;;;;;;6.15;4.18;;;;;;;;;;5015218;28;20043;-71
2023/10/12 16:39:24;;;;;;;7.45;3.53;;;;;;;;;;5016176;28;20055;-70
2023/10/12 16:41:52;;;;;;;6.13;2.47;;;;;;;;;;5010242;28;20049;-70
2023/10/12 16:44:18;;;;;;;7.97;3.55;;;;;;;;;;5012224;28;20593;-71
2023/10/12 16:46:45;;;;;;;8.73;3.38;;;;;;;;;;5008395;28;20037;-70
2023/10/12 16:49:11;;;;;;;5.07;3.38;;;;;;;;;;5008294;28;20731;-71